EZY808 EGKK-EGPH
Flight info
| Callsign | EZY808 |
|---|---|
| Flight time | 0h 58m |
| Altitude | 38000 |
| Route | LAM L10 BPK UN601 RIBEL DCT INPIP |
| Aircraft | A320/M-SDE3FGHIRWY/LB1 |
Departure
| Time | 2026-05-04 11:40 |
|---|---|
| Airport | London Gatwick Airport (EGKK) |
Arrival
| Time | 2026-05-04 12:39 |
|---|---|
| Airport | Edinburgh Airport (EGPH) |
| Time | Latitude | Longitude | Altitude | Speed | Heading |
|---|---|---|---|---|---|
| 2026-05-04 11:19 | 51.15585 | -0.17681 | 213 ft | 0 kts | 348° |
| 2026-05-04 11:19 | 51.15584 | -0.17681 | 213 ft | 0 kts | 347° |
| 2026-05-04 11:28 | 51.15582 | -0.17680 | 204 ft | 3 kts | 347° |
| 2026-05-04 11:28 | 51.15556 | -0.17671 | 213 ft | 4 kts | 347° |
| 2026-05-04 11:28 | 51.15537 | -0.17665 | 209 ft | 4 kts | 341° |
| 2026-05-04 11:29 | 51.15521 | -0.17645 | 214 ft | 4 kts | 271° |
| 2026-05-04 11:29 | 51.15525 | -0.17607 | 212 ft | 2 kts | 257° |
| 2026-05-04 11:29 | 51.15525 | -0.17603 | 213 ft | 0 kts | 257° |
| 2026-05-04 11:31 | 51.15522 | -0.17628 | 216 ft | 4 kts | 258° |
| 2026-05-04 11:33 | 51.15345 | -0.18263 | 204 ft | 9 kts | 167° |
| 2026-05-04 11:33 | 51.15267 | -0.18234 | 210 ft | 12 kts | 167° |
| 2026-05-04 11:33 | 51.15200 | -0.18239 | 214 ft | 10 kts | 228° |
| 2026-05-04 11:34 | 51.15179 | -0.18375 | 203 ft | 16 kts | 258° |
| 2026-05-04 11:34 | 51.15152 | -0.18570 | 207 ft | 19 kts | 257° |
| 2026-05-04 11:34 | 51.15124 | -0.18777 | 206 ft | 18 kts | 258° |
| 2026-05-04 11:34 | 51.15099 | -0.18961 | 207 ft | 16 kts | 257° |
| 2026-05-04 11:35 | 51.15076 | -0.19128 | 207 ft | 16 kts | 257° |
| 2026-05-04 11:35 | 51.15047 | -0.19336 | 204 ft | 23 kts | 257° |
| 2026-05-04 11:35 | 51.15011 | -0.19602 | 208 ft | 25 kts | 258° |
| 2026-05-04 11:35 | 51.14973 | -0.19881 | 213 ft | 26 kts | 258° |
| 2026-05-04 11:36 | 51.14938 | -0.20134 | 211 ft | 21 kts | 257° |
| 2026-05-04 11:36 | 51.14908 | -0.20339 | 208 ft | 18 kts | 258° |
| 2026-05-04 11:36 | 51.14886 | -0.20508 | 203 ft | 15 kts | 258° |
| 2026-05-04 11:36 | 51.14866 | -0.20655 | 207 ft | 13 kts | 257° |
| 2026-05-04 11:37 | 51.14848 | -0.20785 | 203 ft | 11 kts | 257° |
| 2026-05-04 11:37 | 51.14829 | -0.20921 | 211 ft | 14 kts | 258° |
| 2026-05-04 11:37 | 51.14808 | -0.21082 | 210 ft | 12 kts | 258° |
| 2026-05-04 11:37 | 51.14782 | -0.21201 | 207 ft | 11 kts | 255° |
| 2026-05-04 11:38 | 51.14766 | -0.21310 | 210 ft | 9 kts | 257° |
| 2026-05-04 11:38 | 51.14740 | -0.21396 | 210 ft | 9 kts | 214° |
| 2026-05-04 11:38 | 51.14683 | -0.21389 | 204 ft | 8 kts | 152° |
| 2026-05-04 11:38 | 51.14633 | -0.21332 | 206 ft | 9 kts | 163° |
| 2026-05-04 11:39 | 51.14618 | -0.21326 | 206 ft | 0 kts | 166° |
| 2026-05-04 11:39 | 51.14596 | -0.21318 | 215 ft | 11 kts | 166° |
| 2026-05-04 11:40 | 51.15253 | -0.15818 | 1339 ft | 157 kts | 77° |
| 2026-05-04 11:41 | 51.15490 | -0.14109 | 2028 ft | 160 kts | 78° |
| 2026-05-04 11:41 | 51.15741 | -0.12280 | 2411 ft | 179 kts | 78° |
| 2026-05-04 11:41 | 51.16022 | -0.10217 | 2712 ft | 202 kts | 78° |
| 2026-05-04 11:41 | 51.16344 | -0.07908 | 3005 ft | 226 kts | 75° |
| 2026-05-04 11:42 | 51.17099 | -0.05573 | 3428 ft | 251 kts | 53° |
| 2026-05-04 11:42 | 51.18192 | -0.03314 | 4163 ft | 261 kts | 52° |
| 2026-05-04 11:42 | 51.19318 | -0.01013 | 5040 ft | 266 kts | 52° |
| 2026-05-04 11:42 | 51.20474 | 0.01351 | 5849 ft | 273 kts | 52° |
| 2026-05-04 11:43 | 51.21645 | 0.03758 | 6687 ft | 278 kts | 52° |
| 2026-05-04 11:43 | 51.22899 | 0.06131 | 7516 ft | 283 kts | 41° |
| 2026-05-04 11:43 | 51.24582 | 0.07711 | 8323 ft | 288 kts | 17° |
| 2026-05-04 11:43 | 51.26590 | 0.08041 | 9166 ft | 290 kts | 351° |
| 2026-05-04 11:44 | 51.28577 | 0.07355 | 9999 ft | 293 kts | 345° |
| 2026-05-04 11:44 | 51.30608 | 0.06562 | 10427 ft | 312 kts | 345° |
| 2026-05-04 11:44 | 51.32791 | 0.05696 | 10705 ft | 334 kts | 345° |
| 2026-05-04 11:44 | 51.35189 | 0.04750 | 11382 ft | 343 kts | 345° |
| 2026-05-04 11:45 | 51.37414 | 0.03882 | 12077 ft | 347 kts | 345° |
| 2026-05-04 11:45 | 51.39772 | 0.02971 | 12817 ft | 351 kts | 345° |
| 2026-05-04 11:45 | 51.42165 | 0.02052 | 13542 ft | 355 kts | 345° |
| 2026-05-04 11:45 | 51.44585 | 0.01126 | 14206 ft | 359 kts | 345° |
| 2026-05-04 11:46 | 51.47029 | 0.00197 | 14834 ft | 363 kts | 345° |
| 2026-05-04 11:46 | 51.49564 | -0.00773 | 15446 ft | 367 kts | 345° |
| 2026-05-04 11:46 | 51.51989 | -0.01710 | 16061 ft | 371 kts | 345° |
| 2026-05-04 11:46 | 51.54514 | -0.02690 | 16670 ft | 375 kts | 345° |
| 2026-05-04 11:47 | 51.57070 | -0.03683 | 17283 ft | 379 kts | 345° |
| 2026-05-04 11:47 | 51.59647 | -0.04686 | 17907 ft | 382 kts | 345° |
| 2026-05-04 11:47 | 51.62239 | -0.05699 | 18496 ft | 386 kts | 345° |
| 2026-05-04 11:47 | 51.64865 | -0.06724 | 19027 ft | 389 kts | 345° |
| 2026-05-04 11:48 | 51.67504 | -0.07760 | 19566 ft | 392 kts | 345° |
| 2026-05-04 11:48 | 51.70158 | -0.08800 | 20096 ft | 395 kts | 345° |
| 2026-05-04 11:48 | 51.72837 | -0.09849 | 20627 ft | 397 kts | 344° |
| 2026-05-04 11:48 | 51.75455 | -0.11304 | 21120 ft | 399 kts | 334° |
| 2026-05-04 11:49 | 51.77896 | -0.13424 | 21627 ft | 400 kts | 327° |
| 2026-05-04 11:49 | 51.80300 | -0.15729 | 22134 ft | 403 kts | 327° |
| 2026-05-04 11:49 | 51.82716 | -0.18039 | 22612 ft | 406 kts | 328° |
| 2026-05-04 11:49 | 51.85157 | -0.20366 | 23124 ft | 408 kts | 328° |
| 2026-05-04 11:50 | 51.87614 | -0.22704 | 23593 ft | 411 kts | 328° |
| 2026-05-04 11:50 | 51.90096 | -0.25067 | 23989 ft | 414 kts | 327° |
| 2026-05-04 11:50 | 51.91746 | -0.26641 | 24246 ft | 416 kts | 327° |
| 2026-05-04 11:50 | 51.94246 | -0.29030 | 24636 ft | 418 kts | 327° |
| 2026-05-04 11:51 | 51.96760 | -0.31439 | 25011 ft | 421 kts | 327° |
| 2026-05-04 11:51 | 51.99286 | -0.33866 | 25397 ft | 423 kts | 327° |
| 2026-05-04 11:51 | 52.01825 | -0.36312 | 25766 ft | 426 kts | 327° |
| 2026-05-04 11:51 | 52.04378 | -0.38776 | 26142 ft | 428 kts | 327° |
| 2026-05-04 11:52 | 52.06946 | -0.41257 | 26553 ft | 429 kts | 327° |
| 2026-05-04 11:52 | 52.09520 | -0.43742 | 26958 ft | 430 kts | 327° |
| 2026-05-04 11:52 | 52.12100 | -0.46233 | 27345 ft | 432 kts | 327° |
| 2026-05-04 11:52 | 52.14701 | -0.48746 | 27696 ft | 434 kts | 327° |
| 2026-05-04 11:53 | 52.17303 | -0.51263 | 28061 ft | 437 kts | 327° |
| 2026-05-04 11:53 | 52.19928 | -0.53809 | 28418 ft | 439 kts | 326° |
| 2026-05-04 11:53 | 52.22553 | -0.56359 | 28767 ft | 441 kts | 326° |
| 2026-05-04 11:53 | 52.25162 | -0.58897 | 29094 ft | 443 kts | 326° |
| 2026-05-04 11:55 | 52.43941 | -0.77311 | 31099 ft | 456 kts | 327° |
| 2026-05-04 11:55 | 52.46667 | -0.79995 | 31402 ft | 456 kts | 328° |
| 2026-05-04 11:56 | 52.49390 | -0.82677 | 31757 ft | 455 kts | 328° |
| 2026-05-04 11:56 | 52.52105 | -0.85356 | 32108 ft | 455 kts | 328° |
| 2026-05-04 11:56 | 52.54818 | -0.88040 | 32428 ft | 455 kts | 329° |
| 2026-05-04 11:56 | 52.57525 | -0.90724 | 32739 ft | 455 kts | 329° |
| 2026-05-04 11:57 | 52.60236 | -0.93411 | 33071 ft | 454 kts | 329° |
| 2026-05-04 11:57 | 52.62944 | -0.96091 | 33414 ft | 454 kts | 329° |
| 2026-05-04 11:57 | 52.65647 | -0.98770 | 33764 ft | 453 kts | 329° |
| 2026-05-04 11:57 | 52.68344 | -1.01453 | 34098 ft | 452 kts | 330° |
| 2026-05-04 11:58 | 52.71029 | -1.04134 | 34394 ft | 452 kts | 330° |
| 2026-05-04 11:58 | 52.73711 | -1.06815 | 34698 ft | 451 kts | 329° |
| 2026-05-04 11:58 | 52.76399 | -1.09508 | 34953 ft | 451 kts | 330° |
| 2026-05-04 11:58 | 52.79079 | -1.12197 | 35252 ft | 450 kts | 330° |
| 2026-05-04 11:59 | 52.81751 | -1.14881 | 35529 ft | 449 kts | 330° |
| 2026-05-04 11:59 | 52.84423 | -1.17567 | 35772 ft | 449 kts | 330° |
| 2026-05-04 11:59 | 52.87092 | -1.20253 | 35999 ft | 449 kts | 329° |
| 2026-05-04 11:59 | 52.89729 | -1.22913 | 36213 ft | 449 kts | 329° |
| 2026-05-04 12:00 | 52.92397 | -1.25610 | 36421 ft | 450 kts | 329° |
| 2026-05-04 12:00 | 52.95100 | -1.28347 | 36630 ft | 450 kts | 329° |
| 2026-05-04 12:00 | 52.97774 | -1.31049 | 36823 ft | 451 kts | 329° |
| 2026-05-04 12:00 | 53.00425 | -1.33731 | 36993 ft | 451 kts | 329° |
| 2026-05-04 12:01 | 53.03105 | -1.36451 | 37245 ft | 451 kts | 329° |
| 2026-05-04 12:01 | 53.05775 | -1.39167 | 37462 ft | 450 kts | 329° |
| 2026-05-04 12:02 | 53.21803 | -1.55541 | 38067 ft | 449 kts | 329° |
| 2026-05-04 12:03 | 53.27119 | -1.61009 | 38092 ft | 447 kts | 329° |
| 2026-05-04 12:03 | 53.32408 | -1.66464 | 38088 ft | 446 kts | 329° |
| 2026-05-04 12:04 | 53.37685 | -1.71925 | 38079 ft | 446 kts | 329° |
| 2026-05-04 12:04 | 53.42943 | -1.77366 | 38083 ft | 447 kts | 329° |
| 2026-05-04 12:05 | 53.48231 | -1.82871 | 38101 ft | 447 kts | 328° |
| 2026-05-04 12:05 | 53.53514 | -1.88386 | 38096 ft | 447 kts | 328° |
| 2026-05-04 12:06 | 53.58795 | -1.93919 | 38088 ft | 447 kts | 328° |
| 2026-05-04 12:06 | 53.64081 | -1.99452 | 38092 ft | 447 kts | 328° |
| 2026-05-04 12:07 | 53.69402 | -2.05045 | 38087 ft | 448 kts | 328° |
| 2026-05-04 12:07 | 53.74692 | -2.10448 | 38092 ft | 447 kts | 335° |
| 2026-05-04 12:08 | 53.80433 | -2.14459 | 38100 ft | 446 kts | 339° |
| 2026-05-04 12:08 | 53.86185 | -2.18363 | 38098 ft | 446 kts | 339° |
| 2026-05-04 12:09 | 53.91936 | -2.22297 | 38086 ft | 445 kts | 338° |
| 2026-05-04 12:09 | 53.97683 | -2.26254 | 38094 ft | 445 kts | 338° |
| 2026-05-04 12:10 | 54.03415 | -2.30206 | 38082 ft | 444 kts | 338° |
| 2026-05-04 12:10 | 54.09146 | -2.34162 | 38089 ft | 444 kts | 338° |
| 2026-05-04 12:11 | 54.14874 | -2.38126 | 38079 ft | 444 kts | 338° |
| 2026-05-04 12:11 | 54.20564 | -2.42082 | 37800 ft | 444 kts | 338° |
| 2026-05-04 12:12 | 54.23429 | -2.44077 | 37516 ft | 442 kts | 338° |
| 2026-05-04 12:12 | 54.26266 | -2.46056 | 37250 ft | 440 kts | 338° |
| 2026-05-04 12:12 | 54.29093 | -2.48031 | 36975 ft | 439 kts | 338° |
| 2026-05-04 12:12 | 54.31926 | -2.50015 | 36704 ft | 439 kts | 339° |
| 2026-05-04 12:13 | 54.34731 | -2.51981 | 36314 ft | 434 kts | 339° |
| 2026-05-04 12:14 | 54.53832 | -2.65444 | 32584 ft | 413 kts | 340° |
| 2026-05-04 12:15 | 54.56474 | -2.67320 | 32059 ft | 409 kts | 340° |
| 2026-05-04 12:15 | 54.59094 | -2.69178 | 31538 ft | 406 kts | 340° |
| 2026-05-04 12:15 | 54.61693 | -2.71020 | 31031 ft | 402 kts | 340° |
| 2026-05-04 12:15 | 54.64269 | -2.72847 | 30525 ft | 399 kts | 340° |
| 2026-05-04 12:16 | 54.66821 | -2.74664 | 30008 ft | 395 kts | 340° |
| 2026-05-04 12:16 | 54.69347 | -2.76469 | 29478 ft | 390 kts | 340° |
| 2026-05-04 12:16 | 54.71838 | -2.78252 | 28997 ft | 385 kts | 340° |
| 2026-05-04 12:16 | 54.74268 | -2.79993 | 28532 ft | 380 kts | 339° |
| 2026-05-04 12:17 | 54.76694 | -2.81731 | 28066 ft | 375 kts | 339° |
| 2026-05-04 12:17 | 54.79091 | -2.83448 | 27620 ft | 370 kts | 339° |
| 2026-05-04 12:17 | 54.81463 | -2.85148 | 27175 ft | 366 kts | 339° |
| 2026-05-04 12:17 | 54.83793 | -2.86822 | 26748 ft | 361 kts | 339° |
| 2026-05-04 12:18 | 54.86108 | -2.88488 | 26328 ft | 357 kts | 339° |
| 2026-05-04 12:18 | 54.88394 | -2.90137 | 25898 ft | 354 kts | 338° |
| 2026-05-04 12:18 | 54.90663 | -2.91773 | 25382 ft | 353 kts | 338° |
| 2026-05-04 12:18 | 54.92932 | -2.93412 | 24895 ft | 353 kts | 338° |
| 2026-05-04 12:19 | 54.95197 | -2.95054 | 24393 ft | 352 kts | 338° |
| 2026-05-04 12:19 | 54.97454 | -2.96692 | 23924 ft | 352 kts | 338° |
| 2026-05-04 12:19 | 54.99713 | -2.98334 | 23381 ft | 352 kts | 337° |
| 2026-05-04 12:19 | 55.01979 | -2.99978 | 22867 ft | 352 kts | 337° |
| 2026-05-04 12:20 | 55.04244 | -3.01620 | 22379 ft | 352 kts | 337° |
| 2026-05-04 12:20 | 55.06497 | -3.03258 | 21879 ft | 351 kts | 337° |
| 2026-05-04 12:20 | 55.08746 | -3.04899 | 21388 ft | 350 kts | 336° |
| 2026-05-04 12:20 | 55.10982 | -3.06536 | 20911 ft | 348 kts | 336° |
| 2026-05-04 12:21 | 55.13221 | -3.08172 | 20409 ft | 348 kts | 336° |
| 2026-05-04 12:21 | 55.15454 | -3.09806 | 19907 ft | 347 kts | 336° |
| 2026-05-04 12:21 | 55.17700 | -3.11453 | 19200 ft | 354 kts | 336° |
| 2026-05-04 12:21 | 55.19987 | -3.13131 | 18513 ft | 358 kts | 336° |
| 2026-05-04 12:22 | 55.22278 | -3.14813 | 17757 ft | 356 kts | 335° |
| 2026-05-04 12:22 | 55.24524 | -3.16463 | 17075 ft | 352 kts | 335° |
| 2026-05-04 12:22 | 55.26775 | -3.18116 | 16437 ft | 347 kts | 335° |
| 2026-05-04 12:22 | 55.28958 | -3.19569 | 16260 ft | 325 kts | 343° |
| 2026-05-04 12:23 | 55.31183 | -3.20133 | 15945 ft | 315 kts | 357° |
| 2026-05-04 12:23 | 55.33331 | -3.19890 | 15541 ft | 313 kts | 2° |
| 2026-05-04 12:23 | 55.35502 | -3.19551 | 15030 ft | 315 kts | 2° |
| 2026-05-04 12:23 | 55.37676 | -3.19204 | 14753 ft | 311 kts | 2° |
| 2026-05-04 12:24 | 55.39809 | -3.18864 | 14306 ft | 304 kts | 2° |
| 2026-05-04 12:24 | 55.41884 | -3.18538 | 13914 ft | 294 kts | 2° |
| 2026-05-04 12:24 | 55.43868 | -3.18226 | 13646 ft | 281 kts | 2° |
| 2026-05-04 12:24 | 55.45795 | -3.17928 | 13178 ft | 276 kts | 1° |
| 2026-05-04 12:25 | 55.47693 | -3.17637 | 12678 ft | 273 kts | 1° |
| 2026-05-04 12:25 | 55.49580 | -3.17344 | 12177 ft | 271 kts | 1° |
| 2026-05-04 12:25 | 55.51451 | -3.17051 | 11647 ft | 269 kts | 1° |
| 2026-05-04 12:25 | 55.53311 | -3.16759 | 11107 ft | 268 kts | 1° |
| 2026-05-04 12:26 | 55.55162 | -3.16469 | 10580 ft | 266 kts | 1° |
| 2026-05-04 12:26 | 55.57002 | -3.16180 | 10066 ft | 264 kts | 1° |
| 2026-05-04 12:26 | 55.58838 | -3.15894 | 9654 ft | 265 kts | 0° |
| 2026-05-04 12:26 | 55.60669 | -3.15609 | 9360 ft | 263 kts | 1° |
| 2026-05-04 12:27 | 55.62487 | -3.15324 | 9040 ft | 262 kts | 1° |
| 2026-05-04 12:27 | 55.64297 | -3.15040 | 8690 ft | 260 kts | 1° |
| 2026-05-04 12:27 | 55.66096 | -3.14760 | 8347 ft | 259 kts | 1° |
| 2026-05-04 12:27 | 55.67887 | -3.14478 | 8000 ft | 258 kts | 1° |
| 2026-05-04 12:28 | 55.69670 | -3.14193 | 7680 ft | 256 kts | 1° |
| 2026-05-04 12:28 | 55.71400 | -3.13488 | 7326 ft | 260 kts | 22° |
| 2026-05-04 12:28 | 55.72968 | -3.11874 | 7054 ft | 258 kts | 29° |
| 2026-05-04 12:28 | 55.74252 | -3.10413 | 7011 ft | 246 kts | 29° |
| 2026-05-04 12:29 | 55.75701 | -3.08734 | 6924 ft | 240 kts | 30° |
| 2026-05-04 12:29 | 55.77099 | -3.07105 | 6636 ft | 239 kts | 30° |
| 2026-05-04 12:29 | 55.78503 | -3.05550 | 6386 ft | 236 kts | 23° |
| 2026-05-04 12:29 | 55.79982 | -3.04305 | 6127 ft | 235 kts | 20° |
| 2026-05-04 12:30 | 55.81488 | -3.03176 | 5915 ft | 235 kts | 18° |
| 2026-05-04 12:30 | 55.83002 | -3.02086 | 5722 ft | 233 kts | 18° |
| 2026-05-04 12:30 | 55.84513 | -3.01043 | 5509 ft | 232 kts | 13° |
| 2026-05-04 12:30 | 55.86064 | -3.00255 | 5299 ft | 231 kts | 11° |
| 2026-05-04 12:31 | 55.87621 | -2.99557 | 5096 ft | 230 kts | 10° |
| 2026-05-04 12:31 | 55.89175 | -2.98883 | 4839 ft | 229 kts | 10° |
| 2026-05-04 12:31 | 55.90727 | -2.98225 | 4557 ft | 228 kts | 6° |
| 2026-05-04 12:31 | 55.92264 | -2.97970 | 4282 ft | 224 kts | 357° |
| 2026-05-04 12:32 | 55.93837 | -2.97934 | 4016 ft | 222 kts | 356° |
| 2026-05-04 12:32 | 55.96847 | -2.98366 | 3602 ft | 214 kts | 344° |
| 2026-05-04 12:32 | 55.98269 | -2.98991 | 3393 ft | 208 kts | 338° |
| 2026-05-04 12:33 | 55.99607 | -2.99890 | 3190 ft | 203 kts | 332° |
| 2026-05-04 12:33 | 56.00831 | -3.01078 | 3030 ft | 195 kts | 324° |
| 2026-05-04 12:33 | 56.01930 | -3.02420 | 2998 ft | 189 kts | 319° |
| 2026-05-04 12:33 | 56.02942 | -3.03882 | 2995 ft | 186 kts | 311° |
| 2026-05-04 12:34 | 56.03697 | -3.05722 | 2996 ft | 183 kts | 293° |
| 2026-05-04 12:34 | 56.04047 | -3.07886 | 3002 ft | 182 kts | 275° |
| 2026-05-04 12:34 | 56.03959 | -3.10120 | 2999 ft | 177 kts | 256° |
| 2026-05-04 12:34 | 56.03466 | -3.12099 | 3002 ft | 174 kts | 241° |
| 2026-05-04 12:35 | 56.02843 | -3.13951 | 2918 ft | 174 kts | 242° |
| 2026-05-04 12:35 | 56.02434 | -3.15174 | 2799 ft | 173 kts | 242° |
| 2026-05-04 12:35 | 56.01825 | -3.16990 | 2569 ft | 167 kts | 242° |
| 2026-05-04 12:35 | 56.01235 | -3.18749 | 2341 ft | 163 kts | 242° |
| 2026-05-04 12:36 | 56.00671 | -3.20426 | 2126 ft | 153 kts | 242° |
| 2026-05-04 12:36 | 56.00139 | -3.22007 | 1925 ft | 144 kts | 242° |
| 2026-05-04 12:36 | 55.99628 | -3.23525 | 1732 ft | 141 kts | 242° |
| 2026-05-04 12:36 | 55.99127 | -3.25015 | 1540 ft | 140 kts | 242° |
| 2026-05-04 12:37 | 55.98626 | -3.26502 | 1349 ft | 138 kts | 241° |
| 2026-05-04 12:37 | 55.98134 | -3.27964 | 1172 ft | 137 kts | 242° |
| 2026-05-04 12:37 | 55.97642 | -3.29422 | 977 ft | 137 kts | 242° |
| 2026-05-04 12:37 | 55.97152 | -3.30872 | 787 ft | 137 kts | 242° |
| 2026-05-04 12:38 | 55.96658 | -3.32337 | 586 ft | 140 kts | 242° |
| 2026-05-04 12:38 | 55.96165 | -3.33808 | 396 ft | 138 kts | 242° |
| 2026-05-04 12:38 | 55.95664 | -3.35283 | 201 ft | 138 kts | 242° |
| 2026-05-04 12:38 | 55.95192 | -3.36692 | 113 ft | 122 kts | 240° |
| 2026-05-04 12:39 | 55.94880 | -3.37609 | 114 ft | 50 kts | 239° |
| 2026-05-04 12:39 | 55.94749 | -3.38003 | 113 ft | 21 kts | 239° |
| 2026-05-04 12:39 | 55.94667 | -3.38028 | 114 ft | 9 kts | 139° |
| 2026-05-04 12:39 | 55.94625 | -3.37983 | 113 ft | 0 kts | 152° |
| 2026-05-04 12:41 | 55.94623 | -3.37981 | 116 ft | 2 kts | 152° |
| 2026-05-04 12:41 | 55.94601 | -3.37956 | 114 ft | 3 kts | 133° |
| 2026-05-04 12:41 | 55.94591 | -3.37930 | 114 ft | 2 kts | 117° |
| 2026-05-04 12:41 | 55.94602 | -3.37846 | 111 ft | 16 kts | 61° |
| 2026-05-04 12:42 | 55.94662 | -3.37671 | 115 ft | 16 kts | 58° |
| 2026-05-04 12:42 | 55.94718 | -3.37509 | 114 ft | 15 kts | 58° |
| 2026-05-04 12:42 | 55.94769 | -3.37359 | 114 ft | 14 kts | 59° |
| 2026-05-04 12:42 | 55.94823 | -3.37201 | 113 ft | 19 kts | 58° |
| 2026-05-04 12:43 | 55.94897 | -3.36984 | 113 ft | 20 kts | 59° |
| 2026-05-04 12:43 | 55.94968 | -3.36775 | 115 ft | 19 kts | 58° |
| 2026-05-04 12:43 | 55.95034 | -3.36580 | 115 ft | 19 kts | 58° |
| 2026-05-04 12:43 | 55.95101 | -3.36380 | 114 ft | 18 kts | 59° |
| 2026-05-04 12:44 | 55.95131 | -3.36193 | 115 ft | 14 kts | 104° |
| 2026-05-04 12:44 | 55.95101 | -3.36030 | 116 ft | 13 kts | 109° |
| 2026-05-04 12:44 | 55.95064 | -3.35892 | 115 ft | 12 kts | 118° |
| 2026-05-04 12:44 | 55.95008 | -3.35842 | 114 ft | 9 kts | 201° |
| 2026-05-04 12:45 | 55.94949 | -3.35858 | 115 ft | 8 kts | 162° |
| 2026-05-04 12:45 | 55.94905 | -3.35818 | 116 ft | 6 kts | 179° |
| 2026-05-04 12:45 | 55.94870 | -3.35850 | 114 ft | 6 kts | 210° |
| 2026-05-04 12:45 | 55.94848 | -3.35872 | 114 ft | 0 kts | 209° |